Time;durP1;ratioP1;P1;durP2;ratioP2;P2;SDS_P1;SDS_P2;PMS_P1;PMS_P2;Temp;Humidity;BMP_temperature;BMP_pressure;BME280_temperature;BME280_humidity;BME280_pressure;Samples;Min_cycle;Max_cycle;Signal;HPM_P1;HPM_P2
2024/01/14 00:00:22;;;;;;;13.45;1.15;;;;;;;;;;5067355;28;20118;-80
2024/01/14 00:02:49;;;;;;;17.48;1.73;;;;;;;;;;5060925;28;20491;-80
2024/01/14 00:05:15;;;;;;;14.93;1.35;;;;;;;;;;5055640;28;20097;-77
2024/01/14 00:07:41;;;;;;;11.35;1.45;;;;;;;;;;5062318;28;20032;-80
2024/01/14 00:10:07;;;;;;;11.98;1.65;;;;;;;;;;5066556;28;20044;-80
2024/01/14 00:12:33;;;;;;;13.25;2.17;;;;;;;;;;5080467;28;20052;-79
2024/01/14 00:14:59;;;;;;;10.18;1.85;;;;;;;;;;5084032;28;20110;-78
2024/01/14 00:17:25;;;;;;;13.48;1.92;;;;;;;;;;5082853;28;20711;-79
2024/01/14 00:19:51;;;;;;;14.30;2.25;;;;;;;;;;5064992;28;20032;-80
2024/01/14 00:22:17;;;;;;;9.38;1.52;;;;;;;;;;5056799;28;20040;-80
2024/01/14 00:24:44;;;;;;;10.63;1.95;;;;;;;;;;5074061;28;20040;-79
2024/01/14 00:27:10;;;;;;;15.40;1.80;;;;;;;;;;5083616;28;20032;-81
2024/01/14 00:29:36;;;;;;;13.82;2.05;;;;;;;;;;5065194;28;20036;-81
2024/01/14 00:32:02;;;;;;;12.45;1.83;;;;;;;;;;5085128;28;20062;-79
2024/01/14 00:34:29;;;;;;;14.07;1.75;;;;;;;;;;5071845;28;20043;-81
2024/01/14 00:36:55;;;;;;;22.70;2.80;;;;;;;;;;5066668;28;20031;-81
2024/01/14 00:39:22;;;;;;;15.45;1.80;;;;;;;;;;5089499;28;20483;-81
2024/01/14 00:41:48;;;;;;;18.83;2.08;;;;;;;;;;5064299;28;20039;-80
2024/01/14 00:44:14;;;;;;;15.02;2.15;;;;;;;;;;5085420;28;20083;-80
2024/01/14 00:46:40;;;;;;;10.50;1.90;;;;;;;;;;5054326;28;20442;-78
2024/01/14 00:49:06;;;;;;;11.60;2.15;;;;;;;;;;5079535;28;20086;-77
2024/01/14 00:51:32;;;;;;;17.88;2.35;;;;;;;;;;5063658;28;20036;-80
2024/01/14 00:53:58;;;;;;;17.08;2.05;;;;;;;;;;5069953;28;20119;-77
2024/01/14 00:56:24;;;;;;;25.40;2.63;;;;;;;;;;5047255;28;20066;-80
2024/01/14 00:58:50;;;;;;;21.02;2.58;;;;;;;;;;5059471;28;20123;-80
2024/01/14 01:01:16;;;;;;;20.75;3.80;;;;;;;;;;5065916;28;20100;-79
2024/01/14 01:03:42;;;;;;;26.25;2.83;;;;;;;;;;5070034;28;20040;-81
2024/01/14 01:06:08;;;;;;;18.83;3.10;;;;;;;;;;5056881;28;20040;-80
2024/01/14 01:08:34;;;;;;;20.50;3.75;;;;;;;;;;5079930;28;20039;-81
2024/01/14 01:11:01;;;;;;;19.13;2.72;;;;;;;;;;5066352;28;20052;-80
2024/01/14 01:13:27;;;;;;;20.95;2.63;;;;;;;;;;5078963;28;20036;-80
2024/01/14 01:15:53;;;;;;;24.17;2.83;;;;;;;;;;5085041;28;20040;-81
2024/01/14 01:18:19;;;;;;;30.42;3.20;;;;;;;;;;5070091;28;20032;-80
2024/01/14 01:20:45;;;;;;;25.40;3.10;;;;;;;;;;5089914;28;20125;-81
2024/01/14 01:23:11;;;;;;;21.08;3.13;;;;;;;;;;5059837;28;20098;-81
2024/01/14 01:25:37;;;;;;;22.88;3.25;;;;;;;;;;5088028;28;20054;-80
2024/01/14 01:28:03;;;;;;;20.17;3.78;;;;;;;;;;5063263;28;20063;-76
2024/01/14 01:30:29;;;;;;;20.25;3.25;;;;;;;;;;5080021;28;20499;-75
2024/01/14 01:32:55;;;;;;;22.80;2.80;;;;;;;;;;5066788;28;20044;-75
2024/01/14 01:35:21;;;;;;;18.85;3.20;;;;;;;;;;5067029;28;20040;-77
2024/01/14 01:37:49;;;;;;;29.48;3.47;;;;;;;;;;5063034;28;20043;-74
2024/01/14 01:40:15;;;;;;;37.38;3.88;;;;;;;;;;5088258;28;20044;-75
2024/01/14 01:42:41;;;;;;;26.88;3.53;;;;;;;;;;5081821;28;20040;-78
2024/01/14 01:45:09;;;;;;;26.60;3.60;;;;;;;;;;5085298;28;20040;-75
2024/01/14 01:47:35;;;;;;;30.75;4.38;;;;;;;;;;5103695;28;20119;-75
2024/01/14 01:50:02;;;;;;;27.52;3.53;;;;;;;;;;5089451;28;20481;-75
2024/01/14 01:52:28;;;;;;;28.80;3.03;;;;;;;;;;5087790;28;20044;-75
2024/01/14 01:54:55;;;;;;;22.65;3.40;;;;;;;;;;5083843;28;20047;-75
2024/01/14 01:57:22;;;;;;;21.50;2.60;;;;;;;;;;5069512;28;20032;-74
2024/01/14 01:59:48;;;;;;;21.25;4.10;;;;;;;;;;5080338;28;20062;-75
2024/01/14 02:02:14;;;;;;;29.55;5.18;;;;;;;;;;5067890;28;20403;-75
2024/01/14 02:04:41;;;;;;;27.63;4.20;;;;;;;;;;5068643;28;20475;-75
2024/01/14 02:07:07;;;;;;;26.98;3.35;;;;;;;;;;5084062;28;20063;-75
2024/01/14 02:09:33;;;;;;;19.08;3.03;;;;;;;;;;5064188;28;20036;-75
2024/01/14 02:12:00;;;;;;;30.80;4.82;;;;;;;;;;5070971;28;20109;-75
2024/01/14 02:14:26;;;;;;;25.55;3.35;;;;;;;;;;5089990;28;20108;-76
2024/01/14 02:16:53;;;;;;;24.73;2.90;;;;;;;;;;5084680;28;20032;-75
2024/01/14 02:19:19;;;;;;;22.70;3.05;;;;;;;;;;5070131;28;20055;-76
2024/01/14 02:21:46;;;;;;;18.02;3.00;;;;;;;;;;5073002;28;20040;-74
2024/01/14 02:24:25;;;;;;;18.23;2.50;;;;;;;;;;5063799;28;20094;-74
2024/01/14 02:26:51;;;;;;;24.75;3.20;;;;;;;;;;5096527;27;20074;-75
2024/01/14 02:29:18;;;;;;;19.13;2.97;;;;;;;;;;5055831;28;20039;-75
2024/01/14 02:31:44;;;;;;;23.10;2.67;;;;;;;;;;5070706;28;20036;-75
2024/01/14 02:34:12;;;;;;;27.70;3.85;;;;;;;;;;5069036;28;20051;-74
2024/01/14 02:36:38;;;;;;;20.85;2.30;;;;;;;;;;5081581;28;20040;-73
2024/01/14 02:39:07;;;;;;;27.08;3.13;;;;;;;;;;5070248;28;20483;-84
2024/01/14 02:41:33;;;;;;;21.35;2.83;;;;;;;;;;5072267;28;20078;-84
2024/01/14 02:43:59;;;;;;;30.35;3.75;;;;;;;;;;5092894;28;20047;-78
2024/01/14 02:46:25;;;;;;;30.15;3.40;;;;;;;;;;5093038;28;20050;-83
2024/01/14 02:48:51;;;;;;;24.38;4.20;;;;;;;;;;5089877;28;20036;-83
2024/01/14 02:51:18;;;;;;;26.70;3.92;;;;;;;;;;5058349;28;20047;-84
2024/01/14 02:53:44;;;;;;;24.00;2.97;;;;;;;;;;5081457;28;20055;-83
2024/01/14 02:56:10;;;;;;;22.27;2.80;;;;;;;;;;5069785;28;20035;-83
2024/01/14 02:58:36;;;;;;;23.90;3.70;;;;;;;;;;5089052;28;20047;-84
2024/01/14 03:01:03;;;;;;;20.77;3.55;;;;;;;;;;5094886;28;20040;-83
2024/01/14 03:03:29;;;;;;;21.48;3.13;;;;;;;;;;5083506;28;20036;-81
2024/01/14 03:05:55;;;;;;;26.50;3.25;;;;;;;;;;5056333;28;20045;-81
2024/01/14 03:08:21;;;;;;;22.77;2.55;;;;;;;;;;5079156;28;20061;-79
2024/01/14 03:10:47;;;;;;;28.05;3.55;;;;;;;;;;5051261;28;20108;-83
2024/01/14 03:13:16;;;;;;;30.05;2.85;;;;;;;;;;5067747;28;20048;-80
2024/01/14 03:15:45;;;;;;;21.05;2.70;;;;;;;;;;5068278;28;20032;-82
2024/01/14 03:18:15;;;;;;;17.55;2.63;;;;;;;;;;5057738;28;20123;-83
2024/01/14 03:20:42;;;;;;;19.50;2.58;;;;;;;;;;5082213;28;20048;-81
2024/01/14 03:23:08;;;;;;;17.20;2.67;;;;;;;;;;5055760;28;20044;-80
2024/01/14 03:25:34;;;;;;;9.60;1.58;;;;;;;;;;5086924;28;20071;-83
2024/01/14 03:28:00;;;;;;;29.92;4.63;;;;;;;;;;5071410;28;20040;-79
2024/01/14 03:30:26;;;;;;;14.25;2.88;;;;;;;;;;5072589;28;20063;-82
2024/01/14 03:32:53;;;;;;;20.55;2.50;;;;;;;;;;5083722;28;20036;-78
2024/01/14 03:35:19;;;;;;;23.17;3.10;;;;;;;;;;5087498;28;20044;-83
2024/01/14 03:37:45;;;;;;;16.33;2.38;;;;;;;;;;5063562;28;20040;-76
2024/01/14 03:40:11;;;;;;;15.38;2.70;;;;;;;;;;5050670;28;20032;-83
2024/01/14 03:42:37;;;;;;;18.83;3.00;;;;;;;;;;5085142;28;20044;-82
2024/01/14 03:45:04;;;;;;;16.10;3.08;;;;;;;;;;5084350;28;20047;-79
2024/01/14 03:47:30;;;;;;;19.58;2.60;;;;;;;;;;5076768;28;20086;-81
2024/01/14 03:49:56;;;;;;;18.63;2.58;;;;;;;;;;5072674;28;20036;-74
2024/01/14 03:52:22;;;;;;;18.73;3.92;;;;;;;;;;5067625;28;20040;-75
2024/01/14 03:54:48;;;;;;;20.65;3.15;;;;;;;;;;5080402;28;20044;-74
2024/01/14 03:57:14;;;;;;;18.10;2.55;;;;;;;;;;5084590;28;20043;-75
2024/01/14 03:59:40;;;;;;;20.17;2.83;;;;;;;;;;5081013;28;20075;-74
2024/01/14 04:02:06;;;;;;;19.33;2.50;;;;;;;;;;5052047;28;20031;-74
2024/01/14 04:04:33;;;;;;;15.20;3.40;;;;;;;;;;5079872;28;20051;-74
2024/01/14 04:06:59;;;;;;;22.02;2.95;;;;;;;;;;5085234;28;20147;-75
2024/01/14 04:09:25;;;;;;;23.70;3.28;;;;;;;;;;5078479;28;20047;-75
2024/01/14 04:11:51;;;;;;;18.77;2.75;;;;;;;;;;5063638;28;20068;-75
2024/01/14 04:14:17;;;;;;;17.38;2.60;;;;;;;;;;5063255;28;20071;-75
2024/01/14 04:16:43;;;;;;;14.90;3.15;;;;;;;;;;5075973;28;20052;-75
2024/01/14 04:19:09;;;;;;;23.38;2.95;;;;;;;;;;5082852;28;20072;-75
2024/01/14 04:21:35;;;;;;;26.33;3.00;;;;;;;;;;5081412;28;20028;-75
2024/01/14 04:24:04;;;;;;;34.70;4.38;;;;;;;;;;5067109;28;20446;-74
2024/01/14 04:26:30;;;;;;;32.08;3.80;;;;;;;;;;5083865;28;20040;-75
2024/01/14 04:28:57;;;;;;;31.08;3.20;;;;;;;;;;5071572;28;20040;-74
2024/01/14 04:31:23;;;;;;;23.90;3.83;;;;;;;;;;5070001;28;20084;-74
2024/01/14 04:33:49;;;;;;;21.40;2.78;;;;;;;;;;5079344;28;20043;-74
2024/01/14 04:36:15;;;;;;;20.52;3.58;;;;;;;;;;5080472;28;20040;-75
2024/01/14 04:38:42;;;;;;;20.17;3.65;;;;;;;;;;5079217;28;20117;-74
2024/01/14 04:41:08;;;;;;;22.77;3.38;;;;;;;;;;5101129;28;20036;-74
2024/01/14 04:43:34;;;;;;;22.45;2.90;;;;;;;;;;5084170;28;20044;-75
2024/01/14 04:46:00;;;;;;;26.25;3.38;;;;;;;;;;5066953;28;20137;-77
2024/01/14 04:48:26;;;;;;;16.63;2.38;;;;;;;;;;5064811;28;20043;-75
2024/01/14 04:50:52;;;;;;;19.85;2.28;;;;;;;;;;5081256;28;20044;-74
2024/01/14 04:53:18;;;;;;;22.80;2.17;;;;;;;;;;5081927;28;20182;-75
2024/01/14 04:55:45;;;;;;;18.30;4.20;;;;;;;;;;5084818;28;20040;-76
2024/01/14 04:58:11;;;;;;;14.90;2.70;;;;;;;;;;5072159;28;20041;-83
2024/01/14 05:00:37;;;;;;;12.05;1.85;;;;;;;;;;5068088;28;20040;-84
2024/01/14 05:03:04;;;;;;;19.08;2.25;;;;;;;;;;5054497;28;20033;-84
2024/01/14 05:05:30;;;;;;;19.90;2.50;;;;;;;;;;5074121;28;20140;-79
2024/01/14 05:07:56;;;;;;;29.90;2.75;;;;;;;;;;5070321;28;20040;-83
2024/01/14 05:10:22;;;;;;;22.70;2.85;;;;;;;;;;5079129;28;20076;-83
2024/01/14 05:12:49;;;;;;;23.77;3.15;;;;;;;;;;5050599;28;20050;-82
2024/01/14 05:15:15;;;;;;;18.27;2.35;;;;;;;;;;5077098;28;20040;-80
2024/01/14 05:17:42;;;;;;;13.95;2.00;;;;;;;;;;5088623;28;20035;-83
2024/01/14 05:20:11;;;;;;;13.52;1.80;;;;;;;;;;5075346;28;20097;-80
2024/01/14 05:22:37;;;;;;;13.70;2.00;;;;;;;;;;5101766;27;20045;-82
2024/01/14 05:25:04;;;;;;;17.70;1.98;;;;;;;;;;5086227;28;20071;-81
2024/01/14 05:27:30;;;;;;;15.73;2.47;;;;;;;;;;5089363;28;20040;-83
2024/01/14 05:29:57;;;;;;;17.95;1.92;;;;;;;;;;5059712;28;20540;-84
2024/01/14 05:32:23;;;;;;;13.40;2.28;;;;;;;;;;5061150;28;20554;-83
2024/01/14 05:34:49;;;;;;;11.93;1.98;;;;;;;;;;5087218;28;20039;-83
2024/01/14 05:37:18;;;;;;;16.27;2.50;;;;;;;;;;5080428;28;20091;-83
2024/01/14 05:39:44;;;;;;;17.55;3.35;;;;;;;;;;5066414;28;20040;-84
2024/01/14 05:42:10;;;;;;;17.50;2.17;;;;;;;;;;5063685;28;20032;-84
2024/01/14 05:44:36;;;;;;;18.77;3.08;;;;;;;;;;5085052;28;20399;-82
2024/01/14 05:47:02;;;;;;;22.05;2.67;;;;;;;;;;5059957;28;20036;-84
2024/01/14 05:49:28;;;;;;;17.60;2.15;;;;;;;;;;5068506;28;20090;-83
2024/01/14 05:51:54;;;;;;;12.70;2.30;;;;;;;;;;5089421;28;20043;-83
2024/01/14 05:54:21;;;;;;;18.38;2.55;;;;;;;;;;5069833;28;20036;-84
2024/01/14 05:56:47;;;;;;;26.08;2.88;;;;;;;;;;5076012;28;20121;-81
2024/01/14 05:59:13;;;;;;;20.55;1.85;;;;;;;;;;5093212;28;20032;-84
2024/01/14 06:01:39;;;;;;;13.32;2.28;;;;;;;;;;5063835;28;20040;-83
2024/01/14 06:04:05;;;;;;;12.00;1.75;;;;;;;;;;5087279;28;20122;-83
2024/01/14 06:06:31;;;;;;;14.98;2.25;;;;;;;;;;5086731;28;20032;-84
2024/01/14 06:08:57;;;;;;;18.25;2.25;;;;;;;;;;5072815;28;20494;-81
2024/01/14 06:11:23;;;;;;;22.67;2.25;;;;;;;;;;5078816;28;20062;-83
2024/01/14 06:13:49;;;;;;;11.88;2.22;;;;;;;;;;5086096;28;20036;-79
2024/01/14 06:16:15;;;;;;;14.98;1.77;;;;;;;;;;5070860;28;20441;-79
2024/01/14 06:18:42;;;;;;;18.90;3.90;;;;;;;;;;5084392;28;20028;-79
2024/01/14 06:21:08;;;;;;;14.55;2.15;;;;;;;;;;5068145;28;20509;-80
2024/01/14 06:23:35;;;;;;;25.30;3.00;;;;;;;;;;5087991;28;20048;-80
2024/01/14 06:26:01;;;;;;;13.00;1.80;;;;;;;;;;5080645;28;20085;-80
2024/01/14 06:28:27;;;;;;;11.02;1.58;;;;;;;;;;5080739;28;20043;-80
2024/01/14 06:30:53;;;;;;;11.32;1.92;;;;;;;;;;5056020;28;20057;-81
2024/01/14 06:33:20;;;;;;;10.07;1.63;;;;;;;;;;5090223;28;20044;-80
2024/01/14 06:35:46;;;;;;;15.20;3.13;;;;;;;;;;5064705;28;20127;-80
2024/01/14 06:38:12;;;;;;;16.98;2.33;;;;;;;;;;5076611;28;20120;-80
2024/01/14 06:40:38;;;;;;;19.55;3.10;;;;;;;;;;5096665;28;20032;-80
2024/01/14 06:43:05;;;;;;;18.15;2.17;;;;;;;;;;5070197;28;20040;-80
2024/01/14 06:45:31;;;;;;;13.60;2.55;;;;;;;;;;5093272;28;20127;-80
2024/01/14 06:47:57;;;;;;;13.70;2.42;;;;;;;;;;5086446;28;20036;-80
2024/01/14 06:50:23;;;;;;;22.05;3.30;;;;;;;;;;5085234;28;20040;-80
2024/01/14 06:52:49;;;;;;;15.00;2.05;;;;;;;;;;5081938;28;20032;-79
2024/01/14 06:55:15;;;;;;;36.03;4.93;;;;;;;;;;5074184;28;20491;-79
2024/01/14 06:57:43;;;;;;;19.20;1.92;;;;;;;;;;5089281;28;20028;-82
2024/01/14 07:00:09;;;;;;;17.52;2.42;;;;;;;;;;5084480;28;20541;-79
2024/01/14 07:02:35;;;;;;;27.83;2.83;;;;;;;;;;5058561;28;20043;-80
2024/01/14 07:05:03;;;;;;;27.63;4.68;;;;;;;;;;5084038;28;20170;-80
2024/01/14 07:07:29;;;;;;;18.15;2.65;;;;;;;;;;5081993;28;20047;-79
2024/01/14 07:09:55;;;;;;;12.15;2.42;;;;;;;;;;5074496;28;20123;-80
2024/01/14 07:12:21;;;;;;;21.10;2.78;;;;;;;;;;5083849;28;20049;-80
2024/01/14 07:14:47;;;;;;;18.85;2.55;;;;;;;;;;5087246;28;20036;-80
2024/01/14 07:17:13;;;;;;;12.57;1.88;;;;;;;;;;5066522;28;20033;-81
2024/01/14 07:19:39;;;;;;;14.98;1.48;;;;;;;;;;5082765;28;20029;-84
2024/01/14 07:22:06;;;;;;;12.07;1.77;;;;;;;;;;5080195;28;20083;-84
2024/01/14 07:24:33;;;;;;;13.57;1.85;;;;;;;;;;5081753;28;20042;-84
2024/01/14 07:27:01;;;;;;;15.88;2.20;;;;;;;;;;5074509;28;20040;-84
2024/01/14 07:29:28;;;;;;;19.30;2.25;;;;;;;;;;5067140;28;20055;-83
2024/01/14 07:31:54;;;;;;;9.20;1.35;;;;;;;;;;5059892;28;20131;-85
2024/01/14 07:34:20;;;;;;;18.55;2.45;;;;;;;;;;5067809;28;20051;-83
2024/01/14 07:36:46;;;;;;;13.40;1.55;;;;;;;;;;5054515;28;20036;-83
2024/01/14 07:39:12;;;;;;;14.65;3.58;;;;;;;;;;5064292;28;20499;-84
2024/01/14 07:41:39;;;;;;;19.63;1.73;;;;;;;;;;5064700;28;20040;-83
2024/01/14 07:44:05;;;;;;;14.05;1.55;;;;;;;;;;5067383;28;20090;-82
2024/01/14 07:46:31;;;;;;;10.35;1.55;;;;;;;;;;5056867;28;20642;-82
2024/01/14 07:48:58;;;;;;;11.35;1.85;;;;;;;;;;5072132;28;20061;-83
2024/01/14 07:51:24;;;;;;;16.17;1.92;;;;;;;;;;5086828;28;20032;-83
2024/01/14 07:53:50;;;;;;;15.70;1.77;;;;;;;;;;5093617;28;20105;-82
2024/01/14 07:56:16;;;;;;;13.98;2.10;;;;;;;;;;5074319;28;20569;-83
2024/01/14 07:58:43;;;;;;;14.95;2.00;;;;;;;;;;5074431;28;20468;-83
2024/01/14 08:01:09;;;;;;;20.17;2.05;;;;;;;;;;5069334;28;20154;-83
2024/01/14 08:03:35;;;;;;;10.18;2.17;;;;;;;;;;5083794;28;20614;-84
2024/01/14 08:06:02;;;;;;;15.82;2.33;;;;;;;;;;5065054;28;20048;-83
2024/01/14 08:08:28;;;;;;;29.83;3.75;;;;;;;;;;5065188;28;20047;-83
2024/01/14 08:10:54;;;;;;;20.20;3.08;;;;;;;;;;5082636;28;20044;-84
2024/01/14 08:13:20;;;;;;;20.55;2.95;;;;;;;;;;5053203;28;20052;-84
2024/01/14 08:15:46;;;;;;;19.80;2.90;;;;;;;;;;5065867;28;20033;-84
2024/01/14 08:18:15;;;;;;;15.40;2.25;;;;;;;;;;5080751;28;20759;-85
2024/01/14 08:20:42;;;;;;;12.07;2.53;;;;;;;;;;5070302;28;20495;-83
2024/01/14 08:23:08;;;;;;;17.40;3.38;;;;;;;;;;5085494;28;20051;-83
2024/01/14 08:25:34;;;;;;;20.00;3.70;;;;;;;;;;5050029;28;20127;-84
2024/01/14 08:28:00;;;;;;;16.42;2.90;;;;;;;;;;5085624;28;20413;-83
2024/01/14 08:30:26;;;;;;;19.55;2.65;;;;;;;;;;5065380;28;20040;-79
2024/01/14 08:32:52;;;;;;;22.45;2.22;;;;;;;;;;5090748;28;20111;-79
2024/01/14 08:35:18;;;;;;;15.57;2.35;;;;;;;;;;5060240;28;20044;-79
2024/01/14 08:37:46;;;;;;;27.10;4.32;;;;;;;;;;5065075;28;20415;-78
2024/01/14 08:40:12;;;;;;;23.27;2.92;;;;;;;;;;5072775;28;20075;-79
2024/01/14 08:42:43;;;;;;;19.00;2.67;;;;;;;;;;5067875;28;20052;-82
2024/01/14 08:45:10;;;;;;;31.95;4.05;;;;;;;;;;5082718;28;20040;-79
2024/01/14 08:47:36;;;;;;;25.45;3.08;;;;;;;;;;5071584;28;20097;-79
2024/01/14 08:50:03;;;;;;;20.77;2.67;;;;;;;;;;5055951;28;20480;-79
2024/01/14 08:52:29;;;;;;;19.45;2.85;;;;;;;;;;5066552;28;20040;-79
2024/01/14 08:54:55;;;;;;;17.00;2.45;;;;;;;;;;5088543;28;20063;-78
2024/01/14 08:57:21;;;;;;;12.95;3.92;;;;;;;;;;5076822;28;20059;-79
2024/01/14 08:59:48;;;;;;;21.33;2.95;;;;;;;;;;5085319;28;20040;-80
2024/01/14 09:02:14;;;;;;;19.08;2.15;;;;;;;;;;5085643;28;20040;-80
2024/01/14 09:04:40;;;;;;;16.13;2.45;;;;;;;;;;5084639;28;20078;-80
2024/01/14 09:07:06;;;;;;;16.40;2.70;;;;;;;;;;5090714;28;20044;-79
2024/01/14 09:09:32;;;;;;;10.65;2.17;;;;;;;;;;5071386;28;20039;-79
2024/01/14 09:11:58;;;;;;;19.20;5.38;;;;;;;;;;5088435;28;20062;-79
2024/01/14 09:14:25;;;;;;;19.75;2.15;;;;;;;;;;5068221;28;20075;-80
2024/01/14 09:16:51;;;;;;;19.60;2.80;;;;;;;;;;5055944;28;20507;-80
2024/01/14 09:19:17;;;;;;;23.92;3.58;;;;;;;;;;5071181;28;20036;-80
2024/01/14 09:21:43;;;;;;;13.10;2.50;;;;;;;;;;5088682;28;20032;-81
2024/01/14 09:24:09;;;;;;;15.15;2.67;;;;;;;;;;5056272;28;20123;-80
2024/01/14 09:26:35;;;;;;;22.17;2.60;;;;;;;;;;5084271;28;20044;-78
2024/01/14 09:29:02;;;;;;;13.65;2.60;;;;;;;;;;5076519;28;20036;-79
2024/01/14 09:31:28;;;;;;;25.38;3.15;;;;;;;;;;5068150;28;20048;-81
2024/01/14 09:33:54;;;;;;;20.50;3.28;;;;;;;;;;5066852;28;20522;-80
2024/01/14 09:36:20;;;;;;;11.10;2.60;;;;;;;;;;5057468;28;20033;-79
2024/01/14 09:38:46;;;;;;;14.50;2.63;;;;;;;;;;5083073;28;20390;-79
2024/01/14 09:41:13;;;;;;;22.48;3.08;;;;;;;;;;5084176;28;20040;-80
2024/01/14 09:43:41;;;;;;;15.68;2.17;;;;;;;;;;5078392;28;20036;-87
2024/01/14 09:46:07;;;;;;;17.10;1.85;;;;;;;;;;5091354;28;20035;-86
2024/01/14 09:48:34;;;;;;;9.40;2.42;;;;;;;;;;5085590;28;20043;-86
2024/01/14 09:51:03;;;;;;;12.75;2.80;;;;;;;;;;5092912;28;20044;-86
2024/01/14 09:53:30;;;;;;;14.98;1.42;;;;;;;;;;5083507;28;20486;-86
2024/01/14 09:55:57;;;;;;;12.30;1.73;;;;;;;;;;5064731;28;20032;-87
2024/01/14 09:58:23;;;;;;;10.57;1.80;;;;;;;;;;5081854;28;20047;-88
2024/01/14 10:00:50;;;;;;;14.10;2.17;;;;;;;;;;5067812;28;20052;-88
2024/01/14 10:03:16;;;;;;;9.70;1.85;;;;;;;;;;5081167;28;20032;-88
2024/01/14 10:05:44;;;;;;;10.63;1.55;;;;;;;;;;5061666;28;20039;-87
2024/01/14 10:08:10;;;;;;;9.23;2.08;;;;;;;;;;5080529;28;20078;-87
2024/01/14 10:10:36;;;;;;;16.30;2.42;;;;;;;;;;5063508;28;20048;-87
2024/01/14 10:13:03;;;;;;;10.85;1.80;;;;;;;;;;5055806;28;20043;-88
2024/01/14 10:15:32;;;;;;;16.50;3.45;;;;;;;;;;5067718;28;20086;-87
2024/01/14 10:17:58;;;;;;;15.60;1.90;;;;;;;;;;5064774;28;20032;-88
2024/01/14 10:20:24;;;;;;;16.65;3.22;;;;;;;;;;5082652;28;20032;-87
2024/01/14 10:22:51;;;;;;;16.15;2.22;;;;;;;;;;5063803;28;20028;-87
2024/01/14 10:25:19;;;;;;;10.10;2.00;;;;;;;;;;5067644;28;20093;-86
2024/01/14 10:27:45;;;;;;;15.98;2.70;;;;;;;;;;5078867;28;20462;-87
2024/01/14 10:30:11;;;;;;;23.33;3.65;;;;;;;;;;5056028;28;20040;-87
2024/01/14 10:32:38;;;;;;;15.80;2.33;;;;;;;;;;5065122;28;20040;-87
2024/01/14 10:35:13;;;;;;;14.77;1.92;;;;;;;;;;5069294;28;20384;-86
2024/01/14 10:37:40;;;;;;;9.75;1.65;;;;;;;;;;5072217;28;20032;-86
2024/01/14 10:40:08;;;;;;;10.52;1.92;;;;;;;;;;5083708;28;20499;-86
2024/01/14 10:42:38;;;;;;;20.40;2.00;;;;;;;;;;5069964;28;20493;-88
2024/01/14 10:45:05;;;;;;;8.43;1.70;;;;;;;;;;5074411;28;20052;-87
2024/01/14 10:47:34;;;;;;;17.85;4.28;;;;;;;;;;5058926;28;20432;-87
2024/01/14 10:50:01;;;;;;;15.63;2.30;;;;;;;;;;5068839;28;20040;-88
2024/01/14 10:52:30;;;;;;;10.18;2.30;;;;;;;;;;5062495;28;20097;-89
2024/01/14 10:54:58;;;;;;;16.40;2.58;;;;;;;;;;5060504;28;20067;-89
2024/01/14 10:57:35;;;;;;;10.80;3.72;;;;;;;;;;5081299;28;20542;-86
2024/01/14 11:00:08;;;;;;;14.63;2.88;;;;;;;;;;5088143;28;20051;-86
2024/01/14 11:02:35;;;;;;;6.83;2.00;;;;;;;;;;5076444;28;20047;-87
2024/01/14 11:05:03;;;;;;;9.07;2.38;;;;;;;;;;5060718;28;20488;-86
2024/01/14 11:07:30;;;;;;;11.07;1.77;;;;;;;;;;5059559;28;20507;-86
2024/01/14 11:09:56;;;;;;;7.35;2.45;;;;;;;;;;5079285;28;20169;-87
2024/01/14 11:12:41;;;;;;;7.05;0.90;;;;;;;;;;5028085;28;1160473;-86
2024/01/14 11:15:12;;;;;;;6.63;1.20;;;;;;;;;;5088788;28;20044;-87
2024/01/14 11:17:53;;;;;;;7.63;1.10;;;;;;;;;;5084608;28;20045;-89
2024/01/14 11:20:21;;;;;;;7.78;1.15;;;;;;;;;;5069399;28;20086;-86
2024/01/14 11:22:51;;;;;;;6.22;1.27;;;;;;;;;;5085790;28;20622;-87
2024/01/14 11:25:17;;;;;;;5.70;1.30;;;;;;;;;;5067418;28;20047;-87
2024/01/14 11:27:43;;;;;;;9.90;1.77;;;;;;;;;;5075985;28;20039;-88
2024/01/14 11:30:17;;;;;;;13.02;1.75;;;;;;;;;;5086075;28;20622;-89
2024/01/14 11:32:43;;;;;;;10.88;2.55;;;;;;;;;;5095549;27;20368;-87
2024/01/14 11:35:10;;;;;;;10.02;1.75;;;;;;;;;;5083732;28;20032;-88
2024/01/14 11:37:48;;;;;;;11.75;2.05;;;;;;;;;;5066341;28;20063;-87
2024/01/14 11:40:27;;;;;;;10.38;2.03;;;;;;;;;;5085064;28;20044;-88
2024/01/14 11:43:02;;;;;;;10.18;1.58;;;;;;;;;;5087422;28;20032;-87
2024/01/14 11:45:28;;;;;;;8.60;1.50;;;;;;;;;;5090923;28;20036;-88
2024/01/14 11:47:55;;;;;;;11.15;2.03;;;;;;;;;;5068370;28;20039;-87
2024/01/14 11:50:22;;;;;;;10.43;1.27;;;;;;;;;;5087747;28;20083;-89
2024/01/14 11:52:49;;;;;;;11.35;1.50;;;;;;;;;;5065967;28;20475;-89
2024/01/14 11:55:20;;;;;;;10.40;2.10;;;;;;;;;;5079806;28;20054;-87
2024/01/14 11:57:47;;;;;;;9.70;1.52;;;;;;;;;;5063321;28;20062;-88
2024/01/14 12:00:15;;;;;;;6.55;1.50;;;;;;;;;;5093031;28;20039;-84
2024/01/14 12:02:41;;;;;;;9.27;1.40;;;;;;;;;;5087638;28;20044;-85
2024/01/14 12:05:20;;;;;;;10.65;1.63;;;;;;;;;;5071954;28;20518;-85
2024/01/14 12:07:47;;;;;;;6.25;1.48;;;;;;;;;;5065434;28;20043;-85
2024/01/14 12:10:14;;;;;;;12.02;1.20;;;;;;;;;;5086040;28;20078;-83
2024/01/14 12:12:40;;;;;;;9.68;1.77;;;;;;;;;;5079367;28;20051;-85
2024/01/14 12:15:07;;;;;;;10.70;1.35;;;;;;;;;;5070917;28;20055;-85
2024/01/14 12:17:33;;;;;;;10.68;1.27;;;;;;;;;;5094793;27;20067;-85
2024/01/14 12:19:59;;;;;;;7.72;1.50;;;;;;;;;;5066162;28;20073;-85
2024/01/14 12:22:25;;;;;;;14.50;1.83;;;;;;;;;;5078708;28;24237;-83
2024/01/14 12:24:52;;;;;;;15.77;1.27;;;;;;;;;;5081851;28;20032;-84
2024/01/14 12:27:20;;;;;;;10.68;1.60;;;;;;;;;;5076387;28;20051;-84
2024/01/14 12:29:46;;;;;;;13.60;1.75;;;;;;;;;;5078477;28;20071;-83
2024/01/14 12:32:12;;;;;;;11.32;1.55;;;;;;;;;;5085764;28;20045;-84
2024/01/14 12:34:39;;;;;;;9.02;1.45;;;;;;;;;;5082149;28;20031;-81
2024/01/14 12:37:06;;;;;;;9.85;1.73;;;;;;;;;;5062543;28;20048;-84
2024/01/14 12:39:32;;;;;;;9.00;1.77;;;;;;;;;;5086351;28;20079;-84
2024/01/14 12:41:59;;;;;;;15.65;1.35;;;;;;;;;;5076148;28;20055;-84
2024/01/14 12:44:26;;;;;;;7.13;1.35;;;;;;;;;;5084469;28;20054;-84
2024/01/14 12:47:04;;;;;;;6.30;0.90;;;;;;;;;;5053608;28;20079;-83
2024/01/14 12:49:31;;;;;;;8.63;0.85;;;;;;;;;;5068670;28;20411;-85
2024/01/14 12:52:01;;;;;;;6.32;1.52;;;;;;;;;;5086486;28;20051;-84
2024/01/14 12:54:27;;;;;;;7.25;1.48;;;;;;;;;;5083579;28;20052;-82
2024/01/14 12:57:00;;;;;;;12.90;1.30;;;;;;;;;;5061593;28;20111;-84
2024/01/14 12:59:26;;;;;;;10.80;1.00;;;;;;;;;;5081147;28;20048;-84
2024/01/14 13:01:53;;;;;;;5.22;1.27;;;;;;;;;;5070253;28;20036;-83
2024/01/14 13:04:19;;;;;;;8.02;1.52;;;;;;;;;;5085067;28;20055;-84
2024/01/14 13:06:45;;;;;;;4.68;0.98;;;;;;;;;;5054498;28;20506;-82
2024/01/14 13:09:11;;;;;;;7.07;1.65;;;;;;;;;;5075260;28;20406;-84
2024/01/14 13:11:37;;;;;;;10.25;1.20;;;;;;;;;;5061500;28;20056;-86
2024/01/14 13:14:03;;;;;;;7.78;1.17;;;;;;;;;;5056461;28;20041;-86
2024/01/14 13:16:29;;;;;;;5.22;1.20;;;;;;;;;;5065614;28;20097;-86
2024/01/14 13:18:56;;;;;;;7.53;0.98;;;;;;;;;;5099036;28;20036;-87
2024/01/14 13:21:22;;;;;;;10.25;1.48;;;;;;;;;;5051164;28;20033;-86
2024/01/14 13:23:48;;;;;;;6.00;0.95;;;;;;;;;;5055383;28;20043;-85
2024/01/14 13:26:14;;;;;;;10.35;1.23;;;;;;;;;;5068630;28;20036;-85
2024/01/14 13:28:40;;;;;;;9.05;1.10;;;;;;;;;;5061845;28;20082;-86
2024/01/14 13:31:07;;;;;;;11.48;1.27;;;;;;;;;;5074804;28;20134;-85
2024/01/14 13:33:33;;;;;;;13.90;1.63;;;;;;;;;;5052669;28;20131;-85
2024/01/14 13:35:59;;;;;;;11.73;1.08;;;;;;;;;;5065582;28;20032;-85
2024/01/14 13:38:25;;;;;;;11.75;1.17;;;;;;;;;;5057328;28;20040;-84
2024/01/14 13:40:51;;;;;;;5.50;0.77;;;;;;;;;;5053684;28;20029;-84
2024/01/14 13:43:18;;;;;;;9.82;1.42;;;;;;;;;;5073674;28;20118;-83
2024/01/14 13:45:44;;;;;;;8.30;1.05;;;;;;;;;;5084658;28;20068;-84
2024/01/14 13:48:10;;;;;;;6.15;0.85;;;;;;;;;;5079797;28;20036;-83
2024/01/14 13:50:36;;;;;;;15.30;1.40;;;;;;;;;;5086850;28;20515;-83
2024/01/14 13:53:02;;;;;;;7.13;1.50;;;;;;;;;;5055636;28;20035;-83
2024/01/14 13:55:28;;;;;;;4.20;0.75;;;;;;;;;;5072507;28;20047;-84
2024/01/14 13:57:54;;;;;;;9.00;1.75;;;;;;;;;;5074617;28;20162;-83
2024/01/14 14:00:20;;;;;;;13.48;1.27;;;;;;;;;;5063365;28;20122;-83
2024/01/14 14:02:47;;;;;;;13.00;1.45;;;;;;;;;;5062575;28;20028;-84
2024/01/14 14:05:14;;;;;;;13.57;1.10;;;;;;;;;;5074537;28;20044;-84
2024/01/14 14:07:40;;;;;;;13.55;2.17;;;;;;;;;;5063302;28;20036;-84
2024/01/14 14:10:06;;;;;;;9.70;1.15;;;;;;;;;;5067174;28;20556;-85
2024/01/14 14:12:32;;;;;;;14.52;1.58;;;;;;;;;;5055295;28;20060;-86
2024/01/14 14:14:58;;;;;;;4.22;1.48;;;;;;;;;;5091811;28;20046;-87
2024/01/14 14:17:26;;;;;;;10.38;1.23;;;;;;;;;;5059255;28;20044;-87
2024/01/14 14:19:52;;;;;;;17.55;1.58;;;;;;;;;;5070374;28;20044;-85
2024/01/14 14:22:18;;;;;;;9.73;1.05;;;;;;;;;;5091567;28;20395;-84
2024/01/14 14:24:45;;;;;;;5.10;0.70;;;;;;;;;;5086264;28;20039;-83
2024/01/14 14:27:29;;;;;;;6.25;1.58;;;;;;;;;;5054969;28;20055;-86